createdAt,value
2018-06-01T00:01:44.550Z,1.55
2018-06-01T00:04:13.436Z,1.67
2018-06-01T00:06:42.327Z,1.77
2018-06-01T00:09:17.498Z,1.67
2018-06-01T00:11:46.387Z,1.60
2018-06-01T00:14:15.328Z,1.55
2018-06-01T00:16:44.569Z,1.50
2018-06-01T00:19:13.550Z,1.70
2018-06-01T00:21:42.444Z,1.75
2018-06-01T00:24:11.336Z,1.58
2018-06-01T00:26:40.237Z,2.08
2018-06-01T00:29:09.164Z,1.62
2018-06-01T00:31:38.285Z,1.40
2018-06-01T00:34:07.179Z,1.12
2018-06-01T00:36:36.070Z,1.45
2018-06-01T00:39:04.967Z,1.90
2018-06-01T00:41:33.850Z,1.50
2018-06-01T00:44:02.742Z,1.90
2018-06-01T00:46:31.631Z,2.22
2018-06-01T00:49:00.554Z,2.00
2018-06-01T00:51:29.455Z,2.10
2018-06-01T00:53:58.348Z,1.60
2018-06-01T00:56:27.238Z,1.40
2018-06-01T00:58:56.137Z,1.87
2018-06-01T01:01:25.024Z,2.15
2018-06-01T01:03:53.919Z,1.52
2018-06-01T01:06:22.863Z,1.98
2018-06-01T01:08:51.755Z,2.10
2018-06-01T01:11:20.865Z,1.90
2018-06-01T01:13:49.751Z,1.50
2018-06-01T01:16:18.641Z,1.37
2018-06-01T01:18:47.534Z,1.83
2018-06-01T01:21:16.419Z,1.73
2018-06-01T01:23:45.590Z,1.70
2018-06-01T01:26:14.684Z,1.87
2018-06-01T01:28:43.576Z,1.90
2018-06-01T01:31:12.474Z,2.90
2018-06-01T01:33:41.362Z,2.95
2018-06-01T01:36:10.262Z,2.58
2018-06-01T01:38:39.160Z,2.67
2018-06-01T01:41:08.055Z,2.22
2018-06-01T01:43:36.943Z,4.28
2018-06-01T01:46:06.217Z,3.20
2018-06-01T01:48:35.102Z,3.03
2018-06-01T01:51:03.990Z,3.45
2018-06-01T01:53:32.940Z,2.83
2018-06-01T01:56:01.841Z,3.37
2018-06-01T01:58:30.727Z,2.55
2018-06-01T02:00:59.627Z,2.58
2018-06-01T02:03:28.542Z,3.10
2018-06-01T02:05:57.451Z,2.62
2018-06-01T02:08:26.335Z,3.45
2018-06-01T02:10:55.220Z,3.12
2018-06-01T02:13:24.120Z,3.42
2018-06-01T02:15:53.006Z,4.18
2018-06-01T02:18:21.906Z,6.30
2018-06-01T02:20:51.138Z,4.00
2018-06-01T02:23:20.026Z,2.83
2018-06-01T02:25:49.276Z,2.50
2018-06-01T02:28:18.176Z,2.50
2018-06-01T02:30:47.102Z,3.28
2018-06-01T02:33:16.221Z,2.10
2018-06-01T02:35:45.119Z,2.40
2018-06-01T02:38:14.358Z,2.05
2018-06-01T02:40:43.249Z,2.80
2018-06-01T02:43:12.149Z,1.80
2018-06-01T02:45:41.041Z,2.00
2018-06-01T02:48:09.931Z,3.10
2018-06-01T02:50:38.819Z,2.45
2018-06-01T02:53:07.711Z,4.10
2018-06-01T02:55:36.818Z,2.62
2018-06-01T02:58:05.724Z,2.83
2018-06-01T03:00:34.619Z,2.55
2018-06-01T03:03:03.525Z,2.92
2018-06-01T03:05:32.440Z,3.78
2018-06-01T03:08:01.335Z,4.70
2018-06-01T03:10:30.223Z,4.70
2018-06-01T03:12:59.163Z,4.28
2018-06-01T03:15:28.050Z,2.80
2018-06-01T03:17:57.080Z,3.55
2018-06-01T03:20:25.964Z,2.28
2018-06-01T03:22:54.900Z,2.53
2018-06-01T03:25:23.956Z,2.00
2018-06-01T03:27:52.844Z,1.87
2018-06-01T03:30:21.775Z,2.08
2018-06-01T03:32:50.663Z,2.17
2018-06-01T03:35:19.555Z,2.15
2018-06-01T03:37:48.448Z,1.45
2018-06-01T03:40:17.347Z,1.50
2018-06-01T03:42:46.267Z,1.60
2018-06-01T03:45:15.165Z,1.12
2018-06-01T03:47:44.162Z,1.83
2018-06-01T03:50:13.064Z,1.30
2018-06-01T03:52:41.952Z,1.20
2018-06-01T03:55:10.848Z,1.42
2018-06-01T03:57:39.738Z,1.70
2018-06-01T04:00:08.750Z,1.62
2018-06-01T04:02:37.641Z,1.52
2018-06-01T04:05:06.755Z,1.58
2018-06-01T04:07:35.647Z,1.70
2018-06-01T04:10:04.540Z,1.33
2018-06-01T04:12:33.429Z,1.40
2018-06-01T04:15:02.319Z,1.87
2018-06-01T04:17:31.214Z,1.40
2018-06-01T04:20:00.113Z,1.30
2018-06-01T04:22:29.190Z,1.45
2018-06-01T04:24:58.079Z,1.35
2018-06-01T04:27:26.963Z,1.20
2018-06-01T04:29:55.864Z,1.25
2018-06-01T04:32:24.755Z,1.30
2018-06-01T04:34:53.639Z,1.50
2018-06-01T04:37:22.523Z,1.30
2018-06-01T04:39:51.455Z,1.45
2018-06-01T04:42:20.505Z,1.58
2018-06-01T04:44:49.402Z,1.20
2018-06-01T04:47:18.296Z,1.23
2018-06-01T04:49:47.198Z,0.98
2018-06-01T04:52:16.114Z,1.10
2018-06-01T04:54:45.015Z,0.95
2018-06-01T04:57:13.942Z,1.10
2018-06-01T04:59:42.832Z,1.33
2018-06-01T05:02:11.723Z,1.48
2018-06-01T05:04:40.611Z,1.33
2018-06-01T05:07:09.506Z,1.37
2018-06-01T05:09:38.395Z,1.00
2018-06-01T05:12:07.280Z,1.27
2018-06-01T05:14:36.214Z,1.50
2018-06-01T05:17:05.133Z,1.40
2018-06-01T05:19:34.035Z,1.20
2018-06-01T05:22:02.924Z,1.10
2018-06-01T05:24:31.887Z,1.20
2018-06-01T05:27:00.799Z,0.90
2018-06-01T05:29:29.696Z,0.98
2018-06-01T05:31:58.752Z,0.93
2018-06-01T05:34:27.675Z,1.30
2018-06-01T05:36:56.579Z,1.30
2018-06-01T05:39:25.679Z,1.25
2018-06-01T05:41:54.575Z,1.20
2018-06-01T05:44:23.474Z,1.25
2018-06-01T05:46:52.363Z,0.95
2018-06-01T05:49:21.607Z,0.90
2018-06-01T05:51:50.505Z,1.10
2018-06-01T05:54:19.455Z,1.10
2018-06-01T05:56:48.351Z,1.00
2018-06-01T05:59:18.211Z,0.90
2018-06-01T06:01:47.098Z,1.15
2018-06-01T06:04:15.985Z,1.15
2018-06-01T06:06:44.925Z,0.90
2018-06-01T06:09:13.843Z,1.20
2018-06-01T06:11:42.743Z,1.00
2018-06-01T06:14:11.663Z,1.52
2018-06-01T06:16:40.559Z,0.70
2018-06-01T06:19:09.471Z,1.23
2018-06-01T06:21:38.362Z,0.80
2018-06-01T06:24:07.569Z,1.02
2018-06-01T06:26:36.591Z,1.30
2018-06-01T06:29:05.476Z,1.08
2018-06-01T06:31:34.418Z,0.90
2018-06-01T06:34:03.298Z,0.77
2018-06-01T06:36:32.190Z,0.95
2018-06-01T06:39:01.098Z,0.88
2018-06-01T06:41:30.238Z,0.90
2018-06-01T06:43:59.127Z,0.82
2018-06-01T06:46:28.015Z,1.10
2018-06-01T06:48:56.911Z,0.93
2018-06-01T06:51:25.855Z,1.02
2018-06-01T06:53:54.742Z,1.17
2018-06-01T06:56:23.631Z,1.12
2018-06-01T06:58:52.863Z,1.02
2018-06-01T07:01:21.771Z,1.20
2018-06-01T07:03:50.657Z,1.17
2018-06-01T07:06:19.543Z,0.98
2018-06-01T07:08:48.432Z,0.90
2018-06-01T07:11:17.323Z,1.23
2018-06-01T07:13:46.210Z,1.52
2018-06-01T07:16:15.142Z,0.95
2018-06-01T07:18:44.051Z,1.05
2018-06-01T07:21:12.944Z,1.30
2018-06-01T07:23:41.832Z,1.02
2018-06-01T07:26:11.002Z,1.23
2018-06-01T07:28:39.891Z,1.50
2018-06-01T07:31:08.790Z,1.25
2018-06-01T07:33:37.815Z,1.73
2018-06-01T07:36:06.706Z,1.02
2018-06-01T07:38:35.595Z,0.93
2018-06-01T07:41:04.487Z,1.05
2018-06-01T07:43:33.374Z,0.88
2018-06-01T07:46:02.273Z,1.20
2018-06-01T07:48:31.159Z,1.23
2018-06-01T07:51:00.104Z,1.00
2018-06-01T07:53:29.013Z,1.27
2018-06-01T07:55:57.905Z,0.93
2018-06-01T07:58:26.795Z,1.15
2018-06-01T08:00:55.681Z,1.42
2018-06-01T08:03:24.575Z,1.00
2018-06-01T08:05:53.467Z,1.27
2018-06-01T08:08:22.379Z,1.70
2018-06-01T08:10:51.281Z,0.80
2018-06-01T08:13:20.538Z,1.83
2018-06-01T08:15:49.426Z,1.52
2018-06-01T08:18:18.353Z,1.20
2018-06-01T08:20:47.486Z,1.15
2018-06-01T08:23:16.398Z,1.00
2018-06-01T08:25:45.285Z,1.40
2018-06-01T08:28:14.167Z,1.75
2018-06-01T08:30:43.382Z,1.15
2018-06-01T08:33:12.286Z,0.85
2018-06-01T08:35:41.570Z,1.12
2018-06-01T08:38:10.458Z,1.48
2018-06-01T08:40:39.351Z,0.88
2018-06-01T08:43:08.249Z,1.10
2018-06-01T08:45:37.171Z,1.10
2018-06-01T08:48:06.116Z,1.10
2018-06-01T08:50:35.006Z,0.95
2018-06-01T08:53:03.901Z,1.08
2018-06-01T08:55:32.799Z,1.27
2018-06-01T08:58:01.703Z,0.88
2018-06-01T09:00:30.610Z,3.05
2018-06-01T09:02:59.529Z,1.35
2018-06-01T09:05:28.416Z,1.00
2018-06-01T09:07:57.363Z,1.00
2018-06-01T09:10:26.311Z,1.00
2018-06-01T09:12:55.488Z,1.15
2018-06-01T09:15:24.378Z,0.70
2018-06-01T09:17:53.268Z,0.80
2018-06-01T09:20:22.159Z,1.00
2018-06-01T09:22:51.051Z,1.00
2018-06-01T09:25:19.942Z,0.82
2018-06-01T09:27:48.960Z,0.80
2018-06-01T09:30:17.915Z,1.27
2018-06-01T09:32:46.812Z,0.77
2018-06-01T09:35:15.779Z,0.95
2018-06-01T09:37:44.665Z,1.00
2018-06-01T09:40:13.570Z,1.08
2018-06-01T09:42:42.462Z,1.30
2018-06-01T09:45:11.355Z,0.80
2018-06-01T09:47:40.835Z,1.10
2018-06-01T09:50:09.720Z,0.98
2018-06-01T09:52:38.620Z,1.20
2018-06-01T09:55:07.743Z,0.70
2018-06-01T09:57:36.639Z,1.00
2018-06-01T10:00:06.327Z,0.90
2018-06-01T10:02:35.225Z,1.30
2018-06-01T10:05:04.507Z,0.70
2018-06-01T10:07:33.411Z,0.88
2018-06-01T10:10:08.035Z,0.70
2018-06-01T10:12:36.959Z,1.00
2018-06-01T10:15:05.879Z,0.70
2018-06-01T10:17:34.792Z,1.10
2018-06-01T10:20:03.715Z,1.10
2018-06-01T10:22:32.660Z,0.80
2018-06-01T10:25:01.584Z,0.65
2018-06-01T10:27:30.500Z,0.90
2018-06-01T10:29:59.469Z,0.60
2018-06-01T10:32:28.387Z,0.60
2018-06-01T10:34:57.758Z,0.60
2018-06-01T10:44:10.865Z,0.80
2018-06-01T10:46:39.860Z,0.53
2018-06-01T10:49:08.767Z,0.60
2018-06-01T10:51:37.684Z,0.80
2018-06-01T10:54:06.591Z,0.90
2018-06-01T10:56:35.511Z,0.60
2018-06-01T10:59:04.492Z,0.80
2018-06-01T11:01:33.453Z,0.50
2018-06-01T11:04:02.642Z,0.70
2018-06-01T11:06:31.543Z,0.70
2018-06-01T11:09:00.446Z,0.90
2018-06-01T11:11:29.358Z,0.60
2018-06-01T11:13:58.259Z,0.60
2018-06-01T11:16:27.204Z,0.50
2018-06-01T11:18:56.447Z,0.70
2018-06-01T11:21:25.401Z,0.50
2018-06-01T11:23:54.291Z,0.50
2018-06-01T11:26:23.202Z,0.70
2018-06-01T11:28:52.151Z,0.40
2018-06-01T11:31:21.047Z,0.50
2018-06-01T11:33:49.954Z,0.60
2018-06-01T11:36:18.882Z,0.60
2018-06-01T11:38:47.788Z,0.73
2018-06-01T11:41:17.048Z,0.63
2018-06-01T11:43:45.958Z,0.93
2018-06-01T11:46:14.870Z,0.70
2018-06-01T11:48:43.787Z,0.50
2018-06-01T11:51:12.695Z,0.60
2018-06-01T11:53:41.662Z,0.40
2018-06-01T11:56:10.559Z,0.53
2018-06-01T11:58:39.915Z,0.57
2018-06-01T12:01:08.825Z,0.60
2018-06-01T12:03:37.763Z,0.53
2018-06-01T12:06:06.807Z,0.50
2018-06-01T12:08:35.715Z,0.50
2018-06-01T12:11:04.696Z,0.47
2018-06-01T12:13:33.583Z,0.60
2018-06-01T12:16:02.472Z,1.17
2018-06-01T12:18:31.831Z,0.50
2018-06-01T12:21:00.726Z,1.13
2018-06-01T12:23:29.832Z,0.50
2018-06-01T12:25:58.755Z,0.67
2018-06-01T12:28:27.711Z,0.60
2018-06-01T12:30:56.599Z,0.30
2018-06-01T12:33:25.601Z,0.70
2018-06-01T12:35:54.493Z,0.40
2018-06-01T12:38:23.386Z,0.70
2018-06-01T12:40:52.329Z,0.43
2018-06-01T12:43:21.247Z,0.80
2018-06-01T12:45:50.151Z,0.50
2018-06-01T12:48:19.031Z,0.70
2018-06-01T12:50:47.922Z,0.60
2018-06-01T12:53:16.811Z,0.73
2018-06-01T12:55:45.695Z,1.00
2018-06-01T12:58:14.914Z,0.40
2018-06-01T13:00:43.821Z,0.50
2018-06-01T13:03:12.738Z,0.50
2018-06-01T13:05:41.648Z,0.60
2018-06-01T13:08:10.544Z,0.60
2018-06-01T13:10:39.574Z,0.47
2018-06-01T13:13:08.463Z,1.87
2018-06-01T13:15:37.393Z,0.50
2018-06-01T13:18:06.311Z,0.70
2018-06-01T13:20:35.275Z,0.50
2018-06-01T13:23:04.122Z,0.60
2018-06-01T13:25:33.017Z,0.60
2018-06-01T13:28:01.905Z,0.50
2018-06-01T13:30:30.799Z,0.50
2018-06-01T13:32:59.822Z,0.70
2018-06-01T13:35:28.735Z,0.70
2018-06-01T13:37:57.637Z,0.43
2018-06-01T13:40:26.529Z,0.73
2018-06-01T13:42:55.550Z,0.83
2018-06-01T13:45:24.486Z,0.33
2018-06-01T13:47:53.377Z,0.50
2018-06-01T13:50:22.267Z,0.40
2018-06-01T13:52:51.159Z,0.60
2018-06-01T13:55:20.043Z,0.77
2018-06-01T13:57:49.144Z,0.50
2018-06-01T14:00:18.029Z,0.50
2018-06-01T14:02:47.235Z,0.50
2018-06-01T14:05:16.383Z,0.40
2018-06-01T14:07:45.270Z,0.60
2018-06-01T14:10:14.172Z,0.47
2018-06-01T14:12:43.065Z,0.60
2018-06-01T14:15:11.974Z,0.50
2018-06-01T14:17:40.866Z,0.70
2018-06-01T14:20:09.779Z,0.50
2018-06-01T14:22:38.663Z,0.40
2018-06-01T14:25:07.558Z,0.40
2018-06-01T14:27:36.443Z,0.40
2018-06-01T14:30:05.335Z,0.60
2018-06-01T14:32:34.215Z,0.50
2018-06-01T14:35:03.172Z,0.40
2018-06-01T14:37:32.377Z,0.30
2018-06-01T14:40:01.284Z,0.50
2018-06-01T14:42:30.199Z,0.57
2018-06-01T14:44:59.111Z,0.50
2018-06-01T14:47:28.007Z,0.40
2018-06-01T14:49:56.915Z,0.87
2018-06-01T14:52:25.802Z,0.60
2018-06-01T14:54:54.738Z,0.40
2018-06-01T14:57:23.635Z,0.50
2018-06-01T14:59:52.520Z,0.43
2018-06-01T15:02:21.414Z,0.60
2018-06-01T15:04:50.294Z,0.43
2018-06-01T15:07:19.198Z,1.20
2018-06-01T15:09:48.083Z,0.40
2018-06-01T15:12:17.019Z,0.70
2018-06-01T15:14:46.173Z,0.60
2018-06-01T15:17:15.066Z,0.40
2018-06-01T15:19:43.960Z,0.53
2018-06-01T15:22:12.842Z,0.53
2018-06-01T15:24:41.739Z,0.50
2018-06-01T15:27:10.634Z,0.53
2018-06-01T15:29:40.018Z,1.00
2018-06-01T15:32:09.016Z,0.60
2018-06-01T15:34:37.914Z,0.40
2018-06-01T15:37:06.826Z,0.70
2018-06-01T15:39:35.737Z,0.60
2018-06-01T15:42:04.665Z,0.70
2018-06-01T15:44:33.562Z,0.60
2018-06-01T15:47:02.475Z,0.80
2018-06-01T15:49:31.391Z,0.70
2018-06-01T15:52:00.308Z,0.83
2018-06-01T15:54:29.221Z,0.93
2018-06-01T15:56:58.131Z,1.30
2018-06-01T15:59:27.074Z,0.90
2018-06-01T16:01:55.995Z,0.93
2018-06-01T16:04:24.899Z,0.50
2018-06-01T16:06:53.925Z,0.90
2018-06-01T16:09:22.827Z,0.97
2018-06-01T16:11:51.744Z,0.90
2018-06-01T16:14:20.651Z,0.50
2018-06-01T16:16:49.855Z,0.80
2018-06-01T16:19:18.755Z,0.60
2018-06-01T16:21:47.658Z,0.87
2018-06-01T16:24:16.571Z,0.70
2018-06-01T16:26:45.462Z,0.90
2018-06-01T16:29:14.526Z,1.03
2018-06-01T16:31:43.607Z,1.13
2018-06-01T16:34:13.097Z,1.10
2018-06-01T16:36:42.037Z,1.20
2018-06-01T16:39:10.931Z,1.53
2018-06-01T16:41:40.008Z,1.20
2018-06-01T16:44:09.098Z,2.00
2018-06-01T16:46:37.987Z,1.33
2018-06-01T16:49:06.883Z,2.80
2018-06-01T16:51:35.775Z,4.17
2018-06-01T16:54:04.675Z,2.40
2018-06-01T16:56:33.759Z,1.87
2018-06-01T16:59:02.647Z,1.07
2018-06-01T17:01:31.547Z,0.77
2018-06-01T17:04:00.455Z,0.95
2018-06-01T17:06:29.355Z,0.95
2018-06-01T17:08:58.255Z,1.02
2018-06-01T17:11:27.159Z,1.90
2018-06-01T17:13:56.207Z,1.12
2018-06-01T17:16:25.144Z,1.80
2018-06-01T17:18:54.044Z,1.12
2018-06-01T17:21:22.935Z,1.05
2018-06-01T17:23:51.846Z,1.00
2018-06-01T17:26:20.765Z,1.10
2018-06-01T17:28:49.676Z,2.83
2018-06-01T17:31:18.594Z,0.65
2018-06-01T17:33:47.483Z,1.20
2018-06-01T17:36:16.382Z,1.25
2018-06-01T17:38:45.278Z,1.20
2018-06-01T17:41:14.171Z,0.85
2018-06-01T17:43:43.363Z,1.15
2018-06-01T17:46:12.282Z,1.10
2018-06-01T17:48:41.174Z,1.48
2018-06-01T17:51:10.072Z,2.45
2018-06-01T17:53:39.011Z,1.00
2018-06-01T17:56:07.914Z,1.05
2018-06-01T17:58:36.816Z,1.10
2018-06-01T18:01:05.717Z,1.50
2018-06-01T18:03:34.622Z,1.30
2018-06-01T18:06:03.515Z,0.90
2018-06-01T18:08:32.574Z,1.25
2018-06-01T18:11:01.468Z,1.40
2018-06-01T18:13:30.375Z,0.98
2018-06-01T18:15:59.262Z,0.90
2018-06-01T18:18:28.190Z,1.40
2018-06-01T18:20:57.091Z,1.50
2018-06-01T18:23:26.001Z,1.12
2018-06-01T18:25:55.459Z,1.37
2018-06-01T18:28:24.346Z,0.90
2018-06-01T18:30:53.235Z,1.15
2018-06-01T18:33:22.122Z,1.30
2018-06-01T18:35:51.026Z,1.20
2018-06-01T18:38:19.907Z,1.23
2018-06-01T18:40:48.798Z,0.90
2018-06-01T18:43:17.690Z,1.50
2018-06-01T18:45:46.579Z,1.60
2018-06-01T18:48:15.475Z,1.02
2018-06-01T18:50:44.775Z,1.12
2018-06-01T18:53:13.666Z,1.35
2018-06-01T18:55:42.555Z,1.00
2018-06-01T18:58:11.458Z,1.05
2018-06-01T19:00:40.348Z,1.20
2018-06-01T19:09:53.850Z,1.62
2018-06-01T19:12:23.191Z,1.23
2018-06-01T19:14:52.307Z,1.05
2018-06-01T19:17:21.198Z,1.20
2018-06-01T19:19:50.091Z,1.20
2018-06-01T19:22:18.982Z,1.00
2018-06-01T19:24:47.871Z,1.30
2018-06-01T19:27:16.763Z,1.30
2018-06-01T19:29:45.690Z,1.20
2018-06-01T19:32:14.747Z,1.20
2018-06-01T19:34:43.636Z,1.10
2018-06-01T19:37:12.523Z,0.90
2018-06-01T19:39:41.423Z,1.33
2018-06-01T19:42:10.308Z,2.10
2018-06-01T19:44:39.195Z,1.05
2018-06-01T19:47:08.096Z,1.35
2018-06-01T19:49:36.982Z,1.23
2018-06-01T19:52:05.884Z,1.00
2018-06-01T19:54:34.768Z,1.02
2018-06-01T19:57:03.663Z,1.30
2018-06-01T19:59:32.601Z,1.62
2018-06-01T20:02:01.484Z,1.30
2018-06-01T20:04:30.389Z,1.20
2018-06-01T20:06:59.307Z,1.25
2018-06-01T20:09:28.196Z,1.40
2018-06-01T20:11:57.098Z,1.15
2018-06-01T20:14:25.982Z,1.65
2018-06-01T20:16:54.883Z,1.55
2018-06-01T20:19:23.774Z,1.50
2018-06-01T20:21:52.662Z,1.10
2018-06-01T20:24:21.615Z,0.82
2018-06-01T20:26:50.499Z,1.33
2018-06-01T20:29:19.404Z,0.95
2018-06-01T20:31:48.611Z,1.15
2018-06-01T20:34:17.496Z,1.52
2018-06-01T20:36:46.393Z,1.60
2018-06-01T20:39:15.279Z,1.37
2018-06-01T20:41:44.226Z,2.00
2018-06-01T20:44:13.110Z,1.08
2018-06-01T20:46:42.009Z,1.15
2018-06-01T20:49:10.899Z,1.10
2018-06-01T20:51:39.783Z,1.10
2018-06-01T20:54:08.666Z,1.30
2018-06-01T20:56:37.614Z,1.10
2018-06-01T20:59:06.531Z,1.50
2018-06-01T21:01:35.471Z,1.35
2018-06-01T21:04:04.367Z,1.30
2018-06-01T21:06:33.282Z,2.20
2018-06-01T21:09:02.179Z,3.70
2018-06-01T21:11:31.598Z,3.05
2018-06-01T21:14:00.479Z,2.47
2018-06-01T21:16:29.370Z,1.83
2018-06-01T21:18:58.250Z,1.70
2018-06-01T21:21:27.176Z,1.40
2018-06-01T21:23:56.047Z,1.30
2018-06-01T21:26:24.951Z,1.30
2018-06-01T21:28:53.895Z,1.37
2018-06-01T21:31:22.784Z,1.20
2018-06-01T21:33:51.695Z,1.33
2018-06-01T21:36:20.629Z,1.05
2018-06-01T21:38:49.521Z,0.90
2018-06-01T21:41:18.531Z,1.75
2018-06-01T21:43:47.423Z,1.58
2018-06-01T21:46:16.359Z,1.62
2018-06-01T21:48:45.252Z,1.37
2018-06-01T21:51:14.143Z,1.20
2018-06-01T21:53:43.035Z,1.20
2018-06-01T21:56:11.919Z,1.45
2018-06-01T21:58:40.805Z,1.50
2018-06-01T22:01:09.698Z,1.33
2018-06-01T22:03:38.941Z,1.77
2018-06-01T22:06:07.827Z,1.17
2018-06-01T22:08:36.758Z,1.77
2018-06-01T22:11:05.651Z,2.08
2018-06-01T22:13:34.547Z,1.20
2018-06-01T22:16:03.445Z,1.20
2018-06-01T22:18:32.327Z,1.55
2018-06-01T22:21:01.446Z,2.00
2018-06-01T22:23:30.345Z,1.50
2018-06-01T22:25:59.231Z,1.15
2018-06-01T22:28:28.115Z,1.35
2018-06-01T22:30:57.007Z,1.55
2018-06-01T22:33:25.907Z,1.80
2018-06-01T22:35:54.791Z,1.50
2018-06-01T22:38:23.686Z,1.55
2018-06-01T22:40:52.580Z,1.45
2018-06-01T22:43:21.466Z,1.77
2018-06-01T22:45:50.371Z,1.70
2018-06-01T22:48:19.252Z,1.17
2018-06-01T22:50:48.200Z,1.90
2018-06-01T22:53:17.091Z,1.30
2018-06-01T22:55:46.003Z,1.62
2018-06-01T22:58:14.950Z,1.20
2018-06-01T23:00:43.872Z,1.52
2018-06-01T23:03:12.763Z,1.60
2018-06-01T23:05:41.649Z,1.70
2018-06-01T23:08:10.588Z,1.95
2018-06-01T23:10:39.487Z,1.37
2018-06-01T23:13:08.370Z,1.40
2018-06-01T23:15:37.251Z,1.52
2018-06-01T23:18:06.167Z,1.40
2018-06-01T23:20:35.053Z,1.35
2018-06-01T23:23:03.934Z,2.90
2018-06-01T23:25:32.849Z,4.00
2018-06-01T23:28:01.740Z,3.78
2018-06-01T23:30:30.630Z,2.33
2018-06-01T23:32:59.522Z,2.17
2018-06-01T23:35:28.511Z,1.20
2018-06-01T23:37:57.403Z,1.50
2018-06-01T23:40:26.294Z,1.55
2018-06-01T23:42:55.414Z,1.58
2018-06-01T23:45:24.301Z,1.50
2018-06-01T23:47:53.199Z,1.20
2018-06-01T23:50:22.091Z,2.40
2018-06-01T23:52:50.989Z,1.70
2018-06-01T23:55:19.870Z,1.20
2018-06-01T23:57:48.759Z,1.52
